WetterOnline ( https://www.wetteronline.de )

Wetter aktuell Haselbach

Aktuelles Wetter: Leipzig-Holzhausen (138m)

6-stündlich | Neueste Meldungen
Ortszeit Temperatur Wetter
Sa, 22.06. 2:00 20.4° C bedeckt
Fr, 21.06. 20:00 24.1° C wolkig
Fr, 21.06. 14:00 27.0° C bedeckt
Fr, 21.06. 8:00 20.5° C leicht bewölkt
Fr, 21.06. 2:00 15.9° C bewölkt
Do, 20.06. 20:00 20.8° C wolkig
Do, 20.06. 14:00 20.9° C wolkig
Do, 20.06. 8:00 13.3° C Nebel
Ortszeit Temperatur Wetter
Sa, 22.06. 4:30 18.7° C bewölkt
Sa, 22.06. 4:20 18.7° C bewölkt
Sa, 22.06. 4:10 18.7° C bedeckt
Sa, 22.06. 4:00 18.8° C wolkig
Sa, 22.06. 3:50 18.8° C wolkig
Sa, 22.06. 3:40 18.7° C bedeckt
Sa, 22.06. 3:30 18.8° C bedeckt
Sa, 22.06. 3:00 19.6° C bedeckt
Sa, 22.06. 2:30 20.1° C bedeckt
Sa, 22.06. 2:00 20.4° C bedeckt
Sa, 22.06. 1:30 20.3° C bewölkt
Ortszeit Relative Feuchte Sichtweite
Sa, 22.06. 2:00 70% 55 km
Fr, 21.06. 20:00 65% 26 km
Fr, 21.06. 14:00 62% 24 km
Fr, 21.06. 8:00 76% 35 km
Fr, 21.06. 2:00 94% 27 km
Do, 20.06. 20:00 64% 40 km
Do, 20.06. 14:00 63% 45 km
Do, 20.06. 8:00 99% 4.8 km
Ortszeit Relative Feuchte Sichtweite
Sa, 22.06. 4:30 79% 55 km
Sa, 22.06. 4:20 79% -
Sa, 22.06. 4:10 79% -
Sa, 22.06. 4:00 78% >70 km
Sa, 22.06. 3:50 78% -
Sa, 22.06. 3:40 78% -
Sa, 22.06. 3:30 77% >70 km
Sa, 22.06. 3:00 72% 60 km
Sa, 22.06. 2:30 68% >70 km
Sa, 22.06. 2:00 70% 55 km
Sa, 22.06. 1:30 75% 55 km
Ortszeit Niederschlagsmenge Niederschlagsart
Sa, 22.06. 2:00 0.1 l/m2 in 6 Std. Sprühregen
Fr, 21.06. 20:00 0.1 l/m2 in 12 Std. Regen
Fr, 21.06. 14:00 0.0 l/m2 in 6 Std. -
Fr, 21.06. 8:00 0.0 l/m2 in 12 Std. -
Fr, 21.06. 2:00 0.0 l/m2 in 6 Std. -
Do, 20.06. 20:00 0.0 l/m2 in 12 Std. -
Do, 20.06. 14:00 0.0 l/m2 in 6 Std. -
Do, 20.06. 8:00 0.2 l/m2 in 12 Std. -
Ortszeit Niederschlagsmenge Niederschlagsart
Sa, 22.06. 4:30 0.0 l/m2 in 30 Min -
Sa, 22.06. 4:20 keine Meldung -
Sa, 22.06. 4:10 keine Meldung -
Sa, 22.06. 4:00 0.0 l/m2 in 1 Std. -
Sa, 22.06. 3:50 keine Meldung -
Sa, 22.06. 3:40 keine Meldung -
Sa, 22.06. 3:30 0.0 l/m2 in 30 Min -
Sa, 22.06. 3:00 <0.05 l/m2 in 1 Std. Regen
Sa, 22.06. 2:30 <0.05 l/m2 in 30 Min Schneeregen
Sa, 22.06. 2:00 0.0 l/m2 in 1 Std. Sprühregen
Sa, 22.06. 1:30 0.0 l/m2 in 30 Min -
Ortszeit Stärke Spitze Richtung
km/h Bft. km/h Grad Sektor
Sa, 22.06. 2:00 15 3 30 220° SW
Fr, 21.06. 20:00 4 1 43 180° S
Fr, 21.06. 14:00 7 2 22 250° W
Fr, 21.06. 8:00 7 2 11 150° SO
Fr, 21.06. 2:00 4 1 11 150° SO
Do, 20.06. 20:00 4 1 22 90° O
Do, 20.06. 14:00 11 2 22 60° NO
Do, 20.06. 8:00 4 1 14 200° S
Ortszeit Stärke Spitze Richtung
km/h Bft. km/h Grad Sektor
Sa, 22.06. 4:30 11 2 22 210° SW
Sa, 22.06. 4:20 11 2 - 210° SW
Sa, 22.06. 4:10 9 2 - 210° SW
Sa, 22.06. 4:00 11 2 18 210° SW
Sa, 22.06. 3:50 11 2 - 210° SW
Sa, 22.06. 3:40 9 2 - 200° S
Sa, 22.06. 3:30 7 2 18 210° SW
Sa, 22.06. 3:00 9 2 33 220° SW
Sa, 22.06. 2:30 11 2 32 230° SW
Sa, 22.06. 2:00 15 3 30 220° SW
Sa, 22.06. 1:30 11 2 22 200° S
Ortszeit Untergrenze Bedeckung Gattung
total tief tief mittel hoch
Sa, 22.06. 2:00 2700 m 8/8 8/8 - - -
Fr, 21.06. 20:00 6600 m 8/8 1/8 - - -
Fr, 21.06. 14:00 3600 m 8/8 8/8 - - -
Fr, 21.06. 8:00 8400 m 5/8 0/8 - - -
Fr, 21.06. 2:00 3300 m 8/8 7/8 - - -
Do, 20.06. 20:00 1500 m 8/8 2/8 - - -
Do, 20.06. 14:00 960 m 7/8 2/8 - - -
Do, 20.06. 8:00 60 m 8/8 8/8 - - -
Ortszeit Bedeckungsgrad in Achtel und Wolkenuntergrenze
Sa, 22.06. 4:30 7(840m) 8(3300m)
Sa, 22.06. 4:20 7(840m) 8(3300m)
Sa, 22.06. 4:10 8
Sa, 22.06. 4:00 3(840m) 8(4800m) 8(6300m)
Sa, 22.06. 3:50 3(840m) 8(4800m) 8(6300m)
Sa, 22.06. 3:40 8
Sa, 22.06. 3:30 2(3000m) 8(4800m) 8(6000m)
Sa, 22.06. 3:00 4(3300m) 6(4800m) 8(5400m)
Sa, 22.06. 2:30 8(3600m)
Sa, 22.06. 2:00 8(2700m)
Sa, 22.06. 1:30 4(2400m) 8(3000m) 8(7200m)
Ortszeit Luftdruck NN (hPa) Tendenz (hPa in 3 Std.)
Sa, 22.06. 2:00 1010 + 1,2
Fr, 21.06. 20:00 1009 - 1,2
Fr, 21.06. 14:00 1012 - 0,9
Fr, 21.06. 8:00 1015 - 0,7
Fr, 21.06. 2:00 1017 - 0,8
Do, 20.06. 20:00 1018 - 1,0
Do, 20.06. 14:00 1021 - 1,4
Do, 20.06. 8:00 1024 + 0,8
Ortszeit Luftdruck NN (hPa) Tendenz (hPa in 3 Std.)
Sa, 22.06. 4:30 1009 - 0,9
Sa, 22.06. 4:20 1009 keine Meldung
Sa, 22.06. 4:10 1009 keine Meldung
Sa, 22.06. 4:00 1010 - 0,4
Sa, 22.06. 3:50 1010 keine Meldung
Sa, 22.06. 3:40 1009 keine Meldung
Sa, 22.06. 3:30 1009 - 0,2
Sa, 22.06. 3:00 1010 + 0,7
Sa, 22.06. 2:30 1010 + 0,8
Sa, 22.06. 2:00 1010 + 1,2
Sa, 22.06. 1:30 1010 + 1,1
Ortszeit Schneehöhe (cm)
Sa, 22.06. 2:00 0
Fr, 21.06. 20:00 0
Fr, 21.06. 14:00 0
Fr, 21.06. 8:00 0
Fr, 21.06. 2:00 0
Do, 20.06. 20:00 0
Do, 20.06. 14:00 0
Do, 20.06. 8:00 0
Ortszeit Schneehöhe (cm)
Sa, 22.06. 4:30 0
Sa, 22.06. 4:20 0
Sa, 22.06. 4:10 -
Sa, 22.06. 4:00 0
Sa, 22.06. 3:50 0
Sa, 22.06. 3:40 -
Sa, 22.06. 3:30 0
Sa, 22.06. 3:00 0
Sa, 22.06. 2:30 0
Sa, 22.06. 2:00 0
Sa, 22.06. 1:30 0
Link zu dieser Seite / Seite empfehlen

Das Wetter in ...